createdAt,value
2023-02-25T00:00:39.386Z,99133.78
2023-02-25T00:05:43.844Z,99124.31
2023-02-25T00:10:46.639Z,99133.75
2023-02-25T00:15:49.394Z,99134.56
2023-02-25T00:20:53.643Z,99129.88
2023-02-25T00:26:00.151Z,99133.66
2023-02-25T00:31:09.174Z,99126.25
2023-02-25T00:36:18.847Z,99134.97
2023-02-25T00:41:24.149Z,99137.69
2023-02-25T00:46:27.754Z,99154.44
2023-02-25T00:51:34.125Z,99145.72
2023-02-25T00:56:37.176Z,99142.44
2023-02-25T01:01:40.328Z,99142.22
2023-02-25T01:06:45.321Z,99142.47
2023-02-25T01:11:49.591Z,99147.13
2023-02-25T01:16:53.837Z,99154.81
2023-02-25T01:21:59.687Z,99157.31
2023-02-25T01:27:04.021Z,99159.72
2023-02-25T01:32:08.804Z,99153.38
2023-02-25T01:37:13.094Z,99159.72
2023-02-25T01:42:17.720Z,99153.38
2023-02-25T01:47:21.225Z,99162.41
2023-02-25T01:52:26.637Z,99169.78
2023-02-25T01:57:29.419Z,99180.72
2023-02-25T02:02:34.135Z,99185.88
2023-02-25T02:07:42.635Z,99195.22
2023-02-25T02:12:48.090Z,99190.81
2023-02-25T02:17:57.764Z,99189.50
2023-02-25T02:23:22.122Z,99188.81
2023-02-25T02:28:47.271Z,99185.53
2023-02-25T02:34:00.632Z,99181.25
2023-02-25T02:39:09.926Z,99166.22
2023-02-25T02:44:16.702Z,99189.44
2023-02-25T02:49:25.295Z,99195.97
2023-02-25T02:54:33.284Z,99188.88
2023-02-25T02:59:42.967Z,99208.84
2023-02-25T03:04:51.316Z,99203.09
2023-02-25T03:09:58.074Z,99207.91
2023-02-25T03:15:02.258Z,99214.75
2023-02-25T03:20:14.220Z,99209.63
2023-02-25T03:25:22.011Z,99208.69
2023-02-25T03:30:32.630Z,99218.16
2023-02-25T03:35:39.974Z,99224.28
2023-02-25T03:40:44.628Z,99222.28
2023-02-25T03:45:47.706Z,99226.75
2023-02-25T03:50:59.240Z,99232.00
2023-02-25T03:56:06.390Z,99245.22
2023-02-25T04:01:17.001Z,99244.06
2023-02-25T04:06:24.744Z,99254.22
2023-02-25T04:11:28.068Z,99252.75
2023-02-25T04:16:30.985Z,99258.28
2023-02-25T04:21:39.512Z,99268.47
2023-02-25T04:26:42.317Z,99253.88
2023-02-25T04:31:45.402Z,99258.59
2023-02-25T04:36:49.940Z,99267.97
2023-02-25T04:41:52.703Z,99283.88
2023-02-25T04:46:56.072Z,99282.69
2023-02-25T04:52:00.233Z,99276.59
2023-02-25T04:57:02.982Z,99279.09
2023-02-25T05:02:06.041Z,99271.94
2023-02-25T05:07:10.640Z,99286.34
2023-02-25T05:12:13.515Z,99279.41
2023-02-25T05:17:16.875Z,99268.34
2023-02-25T05:22:21.054Z,99273.25
2023-02-25T05:27:23.868Z,99277.91
2023-02-25T05:32:26.820Z,99281.09
2023-02-25T05:37:32.387Z,99288.56
2023-02-25T05:42:35.170Z,99298.25
2023-02-25T05:47:38.000Z,99307.72
2023-02-25T05:52:42.146Z,99307.22
2023-02-25T05:57:44.959Z,99309.22
2023-02-25T06:02:48.136Z,99319.84
2023-02-25T06:07:52.348Z,99324.09
2023-02-25T06:12:55.134Z,99322.38
2023-02-25T06:17:57.999Z,99329.50
2023-02-25T06:23:02.218Z,99341.47
2023-02-25T06:28:05.473Z,99348.34
2023-02-25T06:33:08.559Z,99347.72
2023-02-25T06:38:12.826Z,99358.16
2023-02-25T06:43:15.853Z,99364.44
2023-02-25T06:48:18.632Z,99373.47
2023-02-25T06:53:24.311Z,99381.94
2023-02-25T06:58:27.227Z,99384.78
2023-02-25T07:03:30.017Z,99397.09
2023-02-25T07:08:34.382Z,99411.47
2023-02-25T07:13:37.801Z,99421.69
2023-02-25T07:18:40.664Z,99424.38
2023-02-25T07:23:46.419Z,99425.59
2023-02-25T07:28:49.267Z,99440.06
2023-02-25T07:33:52.912Z,99445.75
2023-02-25T07:38:57.598Z,99438.91
2023-02-25T07:44:00.518Z,99451.84
2023-02-25T07:49:03.547Z,99445.03
2023-02-25T07:54:08.165Z,99460.03
2023-02-25T07:59:11.365Z,99453.22
2023-02-25T08:04:14.366Z,99461.00
2023-02-25T08:09:19.056Z,99468.09
2023-02-25T08:14:22.708Z,99467.81
2023-02-25T08:19:25.616Z,99470.47
2023-02-25T08:24:29.791Z,99481.88
2023-02-25T08:29:32.599Z,99485.06
2023-02-25T08:34:36.066Z,99475.34
2023-02-25T08:39:40.316Z,99479.03
2023-02-25T08:44:43.300Z,99463.16
2023-02-25T08:49:47.557Z,99480.09
2023-02-25T08:54:52.007Z,99479.03
2023-02-25T08:59:55.192Z,99493.16
2023-02-25T09:04:58.018Z,99504.19
2023-02-25T09:10:04.206Z,99506.28
2023-02-25T09:15:08.611Z,99516.03
2023-02-25T09:20:12.372Z,99530.72
2023-02-25T09:25:16.683Z,99527.31
2023-02-25T09:30:19.578Z,99524.00
2023-02-25T09:35:22.572Z,99516.50
2023-02-25T09:40:26.949Z,99532.03
2023-02-25T09:45:34.115Z,99530.69
2023-02-25T09:50:43.371Z,99541.91
2023-02-25T09:55:50.721Z,99572.28
2023-02-25T10:01:04.308Z,99588.03
2023-02-25T10:06:15.324Z,99611.19
2023-02-25T10:11:30.481Z,99611.47
2023-02-25T10:16:43.882Z,99616.09
2023-02-25T10:22:09.864Z,99619.00
2023-02-25T10:27:21.685Z,99632.53
2023-02-25T10:32:26.958Z,99643.88
2023-02-25T10:37:33.906Z,99641.28
2023-02-25T10:42:38.591Z,99648.00
2023-02-25T10:47:43.719Z,99649.94
2023-02-25T10:53:06.055Z,99649.72
2023-02-25T10:58:27.084Z,99654.78
2023-02-25T11:03:32.605Z,99651.50
2023-02-25T11:08:36.935Z,99651.69
2023-02-25T11:13:41.583Z,99643.84
2023-02-25T11:18:44.476Z,99654.91
2023-02-25T11:23:49.375Z,99653.69
2023-02-25T11:28:53.710Z,99674.47
2023-02-25T11:34:01.140Z,99673.47
2023-02-25T11:39:08.537Z,99682.59
2023-02-25T11:44:23.811Z,99682.16
2023-02-25T11:49:35.474Z,99685.22
2023-02-25T11:54:50.023Z,99692.06
2023-02-25T12:00:06.464Z,99709.31
2023-02-25T12:05:35.215Z,99711.88
2023-02-25T12:11:09.077Z,99709.00
2023-02-25T12:16:44.505Z,99723.53
2023-02-25T12:22:23.722Z,99744.13
2023-02-25T12:28:12.031Z,99738.88
2023-02-25T12:33:37.834Z,99751.00
2023-02-25T12:39:12.027Z,99744.28
2023-02-25T12:44:52.848Z,99753.13
2023-02-25T12:50:09.230Z,99761.59
2023-02-25T12:55:43.088Z,99768.00
2023-02-25T13:01:04.154Z,99762.63
2023-02-25T13:06:32.384Z,99764.31
2023-02-25T13:12:09.996Z,99784.56
2023-02-25T13:17:34.391Z,99779.69
2023-02-25T13:22:53.389Z,99781.41
2023-02-25T13:28:08.451Z,99793.91
2023-02-25T13:33:26.847Z,99802.25
2023-02-25T13:38:42.543Z,99803.00
2023-02-25T13:43:56.100Z,99827.47
2023-02-25T13:49:23.197Z,99828.44
2023-02-25T13:55:02.311Z,99817.03
2023-02-25T14:00:40.742Z,99818.91
2023-02-25T14:06:03.295Z,99821.78
2023-02-25T14:11:26.930Z,99830.69
2023-02-25T14:16:44.865Z,99823.44
2023-02-25T14:22:07.270Z,99828.06
2023-02-25T14:27:21.951Z,99859.09
2023-02-25T14:32:43.949Z,99880.16
2023-02-25T14:37:58.123Z,99867.00
2023-02-25T14:43:16.441Z,99883.91
2023-02-25T14:48:26.969Z,99884.13
2023-02-25T14:53:53.306Z,99905.81
2023-02-25T14:59:42.470Z,99918.66
2023-02-25T15:05:20.003Z,99932.47
2023-02-25T15:10:34.686Z,99926.53
2023-02-25T15:15:55.610Z,99924.81
2023-02-25T15:21:00.461Z,99927.09
2023-02-25T15:26:22.808Z,99935.09
2023-02-25T15:31:29.832Z,99942.50
2023-02-25T15:36:43.588Z,99948.28
2023-02-25T15:41:59.953Z,99968.72
2023-02-25T15:47:24.889Z,99977.56
2023-02-25T15:53:02.712Z,99986.03
2023-02-25T15:58:40.150Z,99993.06
2023-02-25T16:03:43.786Z,100003.25
2023-02-25T16:08:53.650Z,100001.50
2023-02-25T16:13:56.682Z,100009.72
2023-02-25T16:19:01.275Z,100018.06
2023-02-25T16:24:08.975Z,100028.78
2023-02-25T16:29:26.628Z,100034.41
2023-02-25T16:34:35.874Z,100044.94
2023-02-25T16:39:40.637Z,100052.44
2023-02-25T16:44:56.264Z,100055.06
2023-02-25T16:50:01.486Z,100065.81
2023-02-25T16:55:12.383Z,100068.56
2023-02-25T17:00:19.897Z,100079.09
2023-02-25T17:05:25.338Z,100086.47
2023-02-25T17:10:33.565Z,100090.41
2023-02-25T17:15:38.153Z,100103.28
2023-02-25T17:20:42.098Z,100099.59
2023-02-25T17:25:49.857Z,100101.00
2023-02-25T17:30:53.158Z,100112.25
2023-02-25T17:35:59.891Z,100116.06
2023-02-25T17:41:04.800Z,100124.22
2023-02-25T17:46:18.553Z,100137.53
2023-02-25T17:51:31.663Z,100134.56
2023-02-25T17:56:38.190Z,100128.63
2023-02-25T18:01:49.511Z,100132.97
2023-02-25T18:06:52.754Z,100134.59
2023-02-25T18:11:59.330Z,100149.84
2023-02-25T18:17:13.283Z,100158.06
2023-02-25T18:22:35.062Z,100157.06
2023-02-25T18:27:39.234Z,100159.00
2023-02-25T18:32:42.006Z,100172.38
2023-02-25T18:37:47.290Z,100176.53
2023-02-25T18:42:51.511Z,100179.69
2023-02-25T18:47:56.643Z,100187.44
2023-02-25T18:53:00.186Z,100187.59
2023-02-25T18:58:04.818Z,100190.84
2023-02-25T19:03:09.947Z,100181.16
2023-02-25T19:08:14.855Z,100195.13
2023-02-25T19:13:24.693Z,100203.22
2023-02-25T19:18:27.726Z,100198.59
2023-02-25T19:23:30.670Z,100207.66
2023-02-25T19:28:34.868Z,100213.00
2023-02-25T19:33:37.690Z,100212.56
2023-02-25T19:38:40.533Z,100221.13
2023-02-25T19:43:44.737Z,100225.53
2023-02-25T19:48:47.514Z,100237.91
2023-02-25T19:53:50.370Z,100239.81
2023-02-25T19:58:58.960Z,100254.72
2023-02-25T20:04:02.394Z,100254.00
2023-02-25T20:09:07.855Z,100274.09
2023-02-25T20:14:13.803Z,100283.59
2023-02-25T20:19:16.639Z,100288.47
2023-02-25T20:24:19.488Z,100286.72
2023-02-25T20:29:24.008Z,100276.19
2023-02-25T20:34:27.557Z,100294.72
2023-02-25T20:39:45.411Z,100291.94
2023-02-25T20:44:51.547Z,100314.69
2023-02-25T20:49:55.866Z,100315.56
2023-02-25T20:54:59.032Z,100303.03
2023-02-25T21:00:03.386Z,100309.59
2023-02-25T21:05:06.871Z,100318.91
2023-02-25T21:10:11.167Z,100330.00
2023-02-25T21:15:15.477Z,100332.72
2023-02-25T21:20:18.313Z,100335.09
2023-02-25T21:25:21.422Z,100339.03
2023-02-25T21:30:26.586Z,100348.28
2023-02-25T21:35:29.457Z,100351.34
2023-02-25T21:40:32.328Z,100360.06
2023-02-25T21:45:37.106Z,100363.81
2023-02-25T21:50:45.442Z,100363.09
2023-02-25T21:55:48.807Z,100366.00
2023-02-25T22:00:52.978Z,100369.69
2023-02-25T22:05:55.819Z,100373.25
2023-02-25T22:10:58.680Z,100383.31
2023-02-25T22:16:04.321Z,100387.00
2023-02-25T22:21:09.590Z,100392.38
2023-02-25T22:26:14.912Z,100392.38
2023-02-25T22:31:19.910Z,100393.19
2023-02-25T22:36:23.217Z,100394.88
2023-02-25T22:41:28.201Z,100393.03
2023-02-25T22:46:35.938Z,100400.97
2023-02-25T22:51:42.013Z,100397.66
2023-02-25T22:56:46.072Z,100405.88
2023-02-25T23:01:50.254Z,100413.09
2023-02-25T23:06:55.639Z,100415.13
2023-02-25T23:11:59.845Z,100419.69
2023-02-25T23:17:04.514Z,100415.31
2023-02-25T23:22:09.573Z,100431.22
2023-02-25T23:27:12.284Z,100424.38
2023-02-25T23:32:16.387Z,100432.50
2023-02-25T23:37:19.205Z,100445.63
2023-02-25T23:42:21.942Z,100451.00
2023-02-25T23:47:26.017Z,100457.09
2023-02-25T23:52:28.883Z,100460.72
2023-02-25T23:57:31.736Z,100467.06
